sensor_id;sensor_type;location;lat;lon;timestamp;pressure;altitude;pressure_sealevel;temperature;humidity
69460;BME280;57182;55.712;37.612;2022-07-22T00:03:05;99550.97;;;16.90;74.80
69460;BME280;57182;55.712;37.612;2022-07-22T00:05:35;99516.91;;;16.76;74.88
69460;BME280;57182;55.712;37.612;2022-07-22T00:08:04;99530.28;;;16.84;74.78
69460;BME280;57182;55.712;37.612;2022-07-22T00:10:32;99547.19;;;16.83;74.97
69460;BME280;57182;55.712;37.612;2022-07-22T00:12:59;99544.66;;;16.82;74.91
69460;BME280;57182;55.712;37.612;2022-07-22T00:15:26;99539.50;;;16.80;74.86
69460;BME280;57182;55.712;37.612;2022-07-22T00:17:54;99539.78;;;16.87;74.56
69460;BME280;57182;55.712;37.612;2022-07-22T00:20:21;99522.50;;;16.83;74.83
69460;BME280;57182;55.712;37.612;2022-07-22T00:22:49;99531.13;;;16.94;74.88
69460;BME280;57182;55.712;37.612;2022-07-22T00:25:16;99539.25;;;16.93;75.07
69460;BME280;57182;55.712;37.612;2022-07-22T00:27:44;99507.72;;;16.71;75.02
69460;BME280;57182;55.712;37.612;2022-07-22T00:30:12;99508.94;;;16.76;74.92
69460;BME280;57182;55.712;37.612;2022-07-22T00:32:39;99502.53;;;16.79;75.01
69460;BME280;57182;55.712;37.612;2022-07-22T00:35:07;99534.50;;;16.96;75.14
69460;BME280;57182;55.712;37.612;2022-07-22T00:37:34;99512.84;;;16.82;75.10
69460;BME280;57182;55.712;37.612;2022-07-22T00:40:03;99536.59;;;16.83;75.25
69460;BME280;57182;55.712;37.612;2022-07-22T00:42:31;99546.34;;;16.92;75.54
69460;BME280;57182;55.712;37.612;2022-07-22T00:44:58;99496.81;;;16.64;75.52
69460;BME280;57182;55.712;37.612;2022-07-22T00:47:27;99537.69;;;16.90;75.31
69460;BME280;57182;55.712;37.612;2022-07-22T00:49:56;99537.13;;;16.87;75.41
69460;BME280;57182;55.712;37.612;2022-07-22T00:52:23;99520.69;;;16.83;75.57
69460;BME280;57182;55.712;37.612;2022-07-22T00:54:51;99519.84;;;16.73;75.42
69460;BME280;57182;55.712;37.612;2022-07-22T00:57:19;99519.53;;;16.76;75.40
69460;BME280;57182;55.712;37.612;2022-07-22T00:59:48;99528.75;;;16.82;75.72
69460;BME280;57182;55.712;37.612;2022-07-22T01:02:15;99517.59;;;16.69;75.71
69460;BME280;57182;55.712;37.612;2022-07-22T01:04:43;99530.72;;;16.70;75.53
69460;BME280;57182;55.712;37.612;2022-07-22T01:07:13;99530.56;;;16.81;75.54
69460;BME280;57182;55.712;37.612;2022-07-22T01:09:43;99554.56;;;16.89;75.41
69460;BME280;57182;55.712;37.612;2022-07-22T01:12:14;99551.22;;;16.87;75.65
69460;BME280;57182;55.712;37.612;2022-07-22T01:14:44;99522.78;;;16.70;75.66
69460;BME280;57182;55.712;37.612;2022-07-22T01:17:12;99539.50;;;16.80;75.51
69460;BME280;57182;55.712;37.612;2022-07-22T01:19:40;99560.72;;;16.90;75.46
69460;BME280;57182;55.712;37.612;2022-07-22T01:22:07;99578.31;;;16.91;75.36
69460;BME280;57182;55.712;37.612;2022-07-22T01:24:35;99541.75;;;16.75;75.18
69460;BME280;57182;55.712;37.612;2022-07-22T01:27:03;99546.19;;;16.75;75.67
69460;BME280;57182;55.712;37.612;2022-07-22T01:29:32;99552.19;;;16.67;75.92
69460;BME280;57182;55.712;37.612;2022-07-22T01:32:01;99569.78;;;16.78;75.41
69460;BME280;57182;55.712;37.612;2022-07-22T01:34:29;99560.72;;;16.80;75.83
69460;BME280;57182;55.712;37.612;2022-07-22T01:36:57;99566.84;;;16.71;75.41
69460;BME280;57182;55.712;37.612;2022-07-22T01:39:24;99548.53;;;16.59;75.45
69460;BME280;57182;55.712;37.612;2022-07-22T01:41:53;99542.56;;;16.66;75.46
69460;BME280;57182;55.712;37.612;2022-07-22T01:44:22;99567.97;;;16.78;75.35
69460;BME280;57182;55.712;37.612;2022-07-22T01:46:49;99548.00;;;16.74;75.54
69460;BME280;57182;55.712;37.612;2022-07-22T01:49:18;99561.25;;;16.84;75.51
69460;BME280;57182;55.712;37.612;2022-07-22T01:51:45;99532.00;;;16.76;75.40
69460;BME280;57182;55.712;37.612;2022-07-22T01:54:13;99549.53;;;16.86;75.28
69460;BME280;57182;55.712;37.612;2022-07-22T01:56:40;99568.81;;;16.88;75.23
69460;BME280;57182;55.712;37.612;2022-07-22T01:59:08;99565.47;;;17.06;75.24
69460;BME280;57182;55.712;37.612;2022-07-22T02:01:35;99566.88;;;17.00;74.86
69460;BME280;57182;55.712;37.612;2022-07-22T02:04:03;99550.28;;;16.88;75.22
69460;BME280;57182;55.712;37.612;2022-07-22T02:06:30;99559.03;;;16.89;75.42
69460;BME280;57182;55.712;37.612;2022-07-22T02:08:59;99560.16;;;16.86;75.44
69460;BME280;57182;55.712;37.612;2022-07-22T02:11:47;99544.94;;;16.79;75.27
69460;BME280;57182;55.712;37.612;2022-07-22T02:14:16;99550.97;;;16.81;75.23
69460;BME280;57182;55.712;37.612;2022-07-22T02:16:44;99549.00;;;16.83;75.53
69460;BME280;57182;55.712;37.612;2022-07-22T02:19:11;99592.00;;;17.06;75.62
69460;BME280;57182;55.712;37.612;2022-07-22T02:21:40;99562.38;;;16.81;75.29
69460;BME280;57182;55.712;37.612;2022-07-22T02:24:10;99585.97;;;16.94;75.27
69460;BME280;57182;55.712;37.612;2022-07-22T02:26:38;99588.34;;;16.97;75.21
69460;BME280;57182;55.712;37.612;2022-07-22T02:32:25;99585.00;;;16.85;75.52
69460;BME280;57182;55.712;37.612;2022-07-22T02:34:54;99596.72;;;16.92;75.53
69460;BME280;57182;55.712;37.612;2022-07-22T02:37:23;99571.59;;;16.77;75.42
69460;BME280;57182;55.712;37.612;2022-07-22T02:39:51;99586.66;;;16.86;75.39
69460;BME280;57182;55.712;37.612;2022-07-22T02:42:20;99601.59;;;16.87;75.48
69460;BME280;57182;55.712;37.612;2022-07-22T02:44:53;99601.75;;;16.95;75.43
69460;BME280;57182;55.712;37.612;2022-07-22T02:52:20;99609.59;;;17.07;74.99
69460;BME280;57182;55.712;37.612;2022-07-22T02:55:28;99608.88;;;17.05;74.94
69460;BME280;57182;55.712;37.612;2022-07-22T02:59:01;99599.69;;;17.09;74.99
69460;BME280;57182;55.712;37.612;2022-07-22T03:02:58;99600.66;;;17.08;74.53
69460;BME280;57182;55.712;37.612;2022-07-22T03:06:10;99635.28;;;17.25;74.94
69460;BME280;57182;55.712;37.612;2022-07-22T03:09:51;99641.00;;;17.30;75.26
69460;BME280;57182;55.712;37.612;2022-07-22T03:17:59;99626.47;;;17.44;74.47
69460;BME280;57182;55.712;37.612;2022-07-22T03:21:51;99627.34;;;17.54;73.80
69460;BME280;57182;55.712;37.612;2022-07-22T03:32:43;99652.63;;;17.58;73.99
69460;BME280;57182;55.712;37.612;2022-07-22T03:40:17;99629.28;;;17.52;73.97
69460;BME280;57182;55.712;37.612;2022-07-22T03:43:12;99622.72;;;17.75;73.33
69460;BME280;57182;55.712;37.612;2022-07-22T03:46:09;99666.09;;;18.12;72.52
69460;BME280;57182;55.712;37.612;2022-07-22T03:49:07;99669.34;;;18.06;71.93
69460;BME280;57182;55.712;37.612;2022-07-22T03:51:48;99658.47;;;17.81;73.12
69460;BME280;57182;55.712;37.612;2022-07-22T03:54:47;99661.66;;;18.03;72.50
69460;BME280;57182;55.712;37.612;2022-07-22T03:57:28;99659.19;;;18.19;71.76
69460;BME280;57182;55.712;37.612;2022-07-22T04:01:10;99646.06;;;18.18;71.74
69460;BME280;57182;55.712;37.612;2022-07-22T04:04:00;99668.97;;;18.29;71.86
69460;BME280;57182;55.712;37.612;2022-07-22T04:06:43;99684.94;;;18.29;72.33
69460;BME280;57182;55.712;37.612;2022-07-22T04:10:04;99679.22;;;18.23;71.84
69460;BME280;57182;55.712;37.612;2022-07-22T04:12:44;99650.84;;;18.14;71.88
69460;BME280;57182;55.712;37.612;2022-07-22T04:15:51;99669.25;;;18.26;71.66
69460;BME280;57182;55.712;37.612;2022-07-22T04:18:41;99648.56;;;18.19;71.77
69460;BME280;57182;55.712;37.612;2022-07-22T04:21:23;99656.38;;;18.31;71.51
69460;BME280;57182;55.712;37.612;2022-07-22T04:24:08;99686.13;;;18.44;71.52
69460;BME280;57182;55.712;37.612;2022-07-22T04:27:05;99678.44;;;18.41;71.14
69460;BME280;57182;55.712;37.612;2022-07-22T04:29:57;99656.94;;;18.24;71.00
69460;BME280;57182;55.712;37.612;2022-07-22T04:32:47;99686.81;;;18.46;71.24
69460;BME280;57182;55.712;37.612;2022-07-22T04:35:49;99705.91;;;18.68;70.72
69460;BME280;57182;55.712;37.612;2022-07-22T04:39:29;99680.06;;;18.61;70.58
69460;BME280;57182;55.712;37.612;2022-07-22T04:42:32;99650.53;;;18.64;70.48
69460;BME280;57182;55.712;37.612;2022-07-22T04:46:00;99693.16;;;18.99;70.08
69460;BME280;57182;55.712;37.612;2022-07-22T04:48:59;99678.16;;;19.08;69.58
69460;BME280;57182;55.712;37.612;2022-07-22T04:51:32;99698.69;;;19.33;69.25
69460;BME280;57182;55.712;37.612;2022-07-22T04:54:22;99666.53;;;19.26;67.75
69460;BME280;57182;55.712;37.612;2022-07-22T04:57:29;99714.19;;;19.65;67.73
69460;BME280;57182;55.712;37.612;2022-07-22T05:12:51;99694.50;;;20.01;66.38
69460;BME280;57182;55.712;37.612;2022-07-22T05:15:19;99706.44;;;20.15;65.72
69460;BME280;57182;55.712;37.612;2022-07-22T05:17:49;99690.38;;;20.06;65.72
69460;BME280;57182;55.712;37.612;2022-07-22T05:20:32;99695.56;;;20.08;65.62
69460;BME280;57182;55.712;37.612;2022-07-22T05:23:04;99687.69;;;20.24;65.58
69460;BME280;57182;55.712;37.612;2022-07-22T05:25:35;99702.69;;;20.51;65.27
69460;BME280;57182;55.712;37.612;2022-07-22T05:28:36;99696.13;;;20.71;64.46
69460;BME280;57182;55.712;37.612;2022-07-22T05:31:03;99708.25;;;20.99;64.07
69460;BME280;57182;55.712;37.612;2022-07-22T05:33:42;99711.84;;;21.24;62.91
69460;BME280;57182;55.712;37.612;2022-07-22T05:36:32;99694.88;;;21.49;62.30
69460;BME280;57182;55.712;37.612;2022-07-22T05:39:09;99699.25;;;22.23;62.42
69460;BME280;57182;55.712;37.612;2022-07-22T05:45:02;99719.81;;;24.00;60.25
69460;BME280;57182;55.712;37.612;2022-07-22T05:47:32;99711.47;;;24.84;53.56
69460;BME280;57182;55.712;37.612;2022-07-22T05:50:11;99715.25;;;25.55;54.87
69460;BME280;57182;55.712;37.612;2022-07-22T05:52:40;99730.09;;;26.42;53.45
69460;BME280;57182;55.712;37.612;2022-07-22T05:55:10;99716.66;;;27.11;51.10
69460;BME280;57182;55.712;37.612;2022-07-22T05:57:43;99715.19;;;27.56;46.25
69460;BME280;57182;55.712;37.612;2022-07-22T06:00:38;99704.22;;;27.77;44.48
69460;BME280;57182;55.712;37.612;2022-07-22T06:03:19;99706.88;;;27.51;47.37
69460;BME280;57182;55.712;37.612;2022-07-22T06:06:15;99720.34;;;27.51;46.88
69460;BME280;57182;55.712;37.612;2022-07-22T06:09:21;99708.78;;;27.76;46.06
69460;BME280;57182;55.712;37.612;2022-07-22T06:11:49;99711.50;;;27.96;45.42
69460;BME280;57182;55.712;37.612;2022-07-22T06:14:27;99707.38;;;28.20;45.08
69460;BME280;57182;55.712;37.612;2022-07-22T06:17:08;99704.06;;;28.31;44.09
69460;BME280;57182;55.712;37.612;2022-07-22T06:20:07;99702.31;;;28.82;43.05
69460;BME280;57182;55.712;37.612;2022-07-22T06:23:08;99703.31;;;29.45;42.29
69460;BME280;57182;55.712;37.612;2022-07-22T06:26:18;99702.75;;;29.68;41.12
69460;BME280;57182;55.712;37.612;2022-07-22T06:29:25;99701.72;;;29.31;42.00
69460;BME280;57182;55.712;37.612;2022-07-22T06:31:58;99704.06;;;29.59;41.05
69460;BME280;57182;55.712;37.612;2022-07-22T06:34:38;99701.22;;;29.47;40.99
69460;BME280;57182;55.712;37.612;2022-07-22T06:37:20;99736.44;;;29.41;40.54
69460;BME280;57182;55.712;37.612;2022-07-22T06:40:23;99725.56;;;29.47;39.59
69460;BME280;57182;55.712;37.612;2022-07-22T06:43:51;99715.75;;;29.53;39.87
69460;BME280;57182;55.712;37.612;2022-07-22T06:48:03;99707.22;;;29.49;38.58
69460;BME280;57182;55.712;37.612;2022-07-22T06:51:13;99725.56;;;29.85;37.61
69460;BME280;57182;55.712;37.612;2022-07-22T06:54:21;99747.97;;;29.10;40.07
69460;BME280;57182;55.712;37.612;2022-07-22T06:57:25;99710.66;;;28.74;40.58
69460;BME280;57182;55.712;37.612;2022-07-22T07:00:02;99718.56;;;28.69;40.81
69460;BME280;57182;55.712;37.612;2022-07-22T07:03:06;99733.72;;;28.77;41.17
69460;BME280;57182;55.712;37.612;2022-07-22T07:06:08;99703.53;;;28.86;40.32
69460;BME280;57182;55.712;37.612;2022-07-22T07:09:22;99720.00;;;29.36;39.41
69460;BME280;57182;55.712;37.612;2022-07-22T07:13:05;99737.06;;;29.74;38.49
69460;BME280;57182;55.712;37.612;2022-07-22T07:16:00;99732.56;;;29.92;38.60
69460;BME280;57182;55.712;37.612;2022-07-22T07:18:57;99726.81;;;30.14;37.29
69460;BME280;57182;55.712;37.612;2022-07-22T07:21:59;99724.69;;;30.83;36.87
69460;BME280;57182;55.712;37.612;2022-07-22T07:24:29;99726.38;;;30.41;37.03
69460;BME280;57182;55.712;37.612;2022-07-22T07:26:57;99736.09;;;30.24;37.22
69460;BME280;57182;55.712;37.612;2022-07-22T07:29:28;99715.47;;;30.23;37.12
69460;BME280;57182;55.712;37.612;2022-07-22T07:31:58;99732.53;;;29.99;37.58
69460;BME280;57182;55.712;37.612;2022-07-22T07:34:26;99737.69;;;29.32;38.27
69460;BME280;57182;55.712;37.612;2022-07-22T07:36:54;99716.31;;;29.23;38.57
69460;BME280;57182;55.712;37.612;2022-07-22T07:39:22;99729.16;;;29.35;38.43
69460;BME280;57182;55.712;37.612;2022-07-22T07:41:55;99732.22;;;29.82;37.71
69460;BME280;57182;55.712;37.612;2022-07-22T07:44:23;99711.78;;;30.42;37.21
69460;BME280;57182;55.712;37.612;2022-07-22T07:46:51;99716.94;;;31.71;35.36
69460;BME280;57182;55.712;37.612;2022-07-22T07:49:21;99734.72;;;31.55;35.19
69460;BME280;57182;55.712;37.612;2022-07-22T07:51:49;99733.44;;;31.22;35.57
69460;BME280;57182;55.712;37.612;2022-07-22T07:54:24;99729.53;;;32.07;34.66
69460;BME280;57182;55.712;37.612;2022-07-22T07:56:58;99731.75;;;31.98;34.59
69460;BME280;57182;55.712;37.612;2022-07-22T07:59:43;99732.25;;;32.07;33.62
69460;BME280;57182;55.712;37.612;2022-07-22T08:02:11;99726.16;;;32.23;33.04
69460;BME280;57182;55.712;37.612;2022-07-22T08:04:40;99725.09;;;32.35;33.12
69460;BME280;57182;55.712;37.612;2022-07-22T08:07:17;99734.22;;;31.88;33.29
69460;BME280;57182;55.712;37.612;2022-07-22T08:09:46;99713.41;;;31.82;33.40
69460;BME280;57182;55.712;37.612;2022-07-22T08:13:01;99718.50;;;32.78;32.13
69460;BME280;57182;55.712;37.612;2022-07-22T08:15:42;99722.63;;;33.04;31.50
69460;BME280;57182;55.712;37.612;2022-07-22T08:18:28;99740.16;;;33.36;31.46
69460;BME280;57182;55.712;37.612;2022-07-22T08:20:56;99733.66;;;33.37;31.31
69460;BME280;57182;55.712;37.612;2022-07-22T08:23:49;99719.06;;;33.71;30.77
69460;BME280;57182;55.712;37.612;2022-07-22T08:26:19;99743.53;;;33.83;30.39
69460;BME280;57182;55.712;37.612;2022-07-22T08:28:51;99721.84;;;33.20;30.30
69460;BME280;57182;55.712;37.612;2022-07-22T08:31:19;99727.75;;;32.65;31.33
69460;BME280;57182;55.712;37.612;2022-07-22T08:33:48;99738.44;;;31.84;33.00
69460;BME280;57182;55.712;37.612;2022-07-22T08:36:28;99740.69;;;31.76;33.13
69460;BME280;57182;55.712;37.612;2022-07-22T08:39:05;99740.94;;;31.86;32.75
69460;BME280;57182;55.712;37.612;2022-07-22T08:41:37;99755.41;;;32.62;31.49
69460;BME280;57182;55.712;37.612;2022-07-22T08:44:09;99741.63;;;32.46;31.43
69460;BME280;57182;55.712;37.612;2022-07-22T08:46:43;99748.00;;;31.45;32.87
69460;BME280;57182;55.712;37.612;2022-07-22T08:49:23;99744.22;;;31.28;32.94
69460;BME280;57182;55.712;37.612;2022-07-22T08:51:59;99747.25;;;31.02;33.13
69460;BME280;57182;55.712;37.612;2022-07-22T08:54:35;99741.63;;;31.51;32.56
69460;BME280;57182;55.712;37.612;2022-07-22T08:57:03;99743.22;;;32.65;31.22
69460;BME280;57182;55.712;37.612;2022-07-22T08:59:55;99750.25;;;33.24;30.24
69460;BME280;57182;55.712;37.612;2022-07-22T09:02:23;99739.53;;;32.82;30.64
69460;BME280;57182;55.712;37.612;2022-07-22T09:05:02;99738.72;;;32.93;30.80
69460;BME280;57182;55.712;37.612;2022-07-22T09:08:00;99763.41;;;33.15;29.37
69460;BME280;57182;55.712;37.612;2022-07-22T09:10:40;99736.72;;;32.54;30.45
69460;BME280;57182;55.712;37.612;2022-07-22T09:13:38;99736.81;;;32.82;30.53
69460;BME280;57182;55.712;37.612;2022-07-22T09:16:44;99727.38;;;33.36;29.57
69460;BME280;57182;55.712;37.612;2022-07-22T09:19:38;99744.22;;;34.06;29.25
69460;BME280;57182;55.712;37.612;2022-07-22T09:22:40;99746.53;;;32.67;31.14
69460;BME280;57182;55.712;37.612;2022-07-22T09:25:35;99767.38;;;31.79;31.19
69460;BME280;57182;55.712;37.612;2022-07-22T09:28:56;99759.72;;;32.28;30.92
69460;BME280;57182;55.712;37.612;2022-07-22T09:31:32;99749.75;;;31.69;31.67
69460;BME280;57182;55.712;37.612;2022-07-22T09:34:29;99764.97;;;31.04;33.41
69460;BME280;57182;55.712;37.612;2022-07-22T09:37:06;99748.28;;;30.40;33.94
69460;BME280;57182;55.712;37.612;2022-07-22T09:39:35;99737.47;;;30.09;34.23
69460;BME280;57182;55.712;37.612;2022-07-22T09:42:07;99744.66;;;31.25;32.32
69460;BME280;57182;55.712;37.612;2022-07-22T09:44:36;99753.72;;;32.50;31.25
69460;BME280;57182;55.712;37.612;2022-07-22T09:47:29;99763.22;;;32.70;30.16
69460;BME280;57182;55.712;37.612;2022-07-22T09:53:11;99750.56;;;33.39;29.57
69460;BME280;57182;55.712;37.612;2022-07-22T09:55:44;99753.47;;;32.51;30.38
69460;BME280;57182;55.712;37.612;2022-07-22T09:58:13;99769.03;;;31.50;31.95
69460;BME280;57182;55.712;37.612;2022-07-22T10:00:42;99758.06;;;31.56;32.12
69460;BME280;57182;55.712;37.612;2022-07-22T10:03:21;99762.56;;;32.33;31.27
69460;BME280;57182;55.712;37.612;2022-07-22T10:05:51;99735.25;;;32.17;31.52
69460;BME280;57182;55.712;37.612;2022-07-22T10:08:21;99751.47;;;30.98;32.85
69460;BME280;57182;55.712;37.612;2022-07-22T10:10:50;99740.69;;;29.61;34.37
69460;BME280;57182;55.712;37.612;2022-07-22T10:13:19;99763.19;;;30.24;33.64
69460;BME280;57182;55.712;37.612;2022-07-22T10:15:48;99734.25;;;31.40;31.53
69460;BME280;57182;55.712;37.612;2022-07-22T10:18:19;99727.56;;;32.25;30.42
69460;BME280;57182;55.712;37.612;2022-07-22T10:21:06;99731.72;;;31.87;30.93
69460;BME280;57182;55.712;37.612;2022-07-22T10:24:06;99760.19;;;31.00;32.79
69460;BME280;57182;55.712;37.612;2022-07-22T10:27:05;99778.25;;;29.82;35.47
69460;BME280;57182;55.712;37.612;2022-07-22T10:29:42;99762.19;;;29.87;35.64
69460;BME280;57182;55.712;37.612;2022-07-22T10:37:38;99773.97;;;31.71;32.02
69460;BME280;57182;55.712;37.612;2022-07-22T10:40:21;99769.16;;;30.58;33.37
69460;BME280;57182;55.712;37.612;2022-07-22T10:45:31;99760.13;;;28.35;37.16
69460;BME280;57182;55.712;37.612;2022-07-22T10:48:04;99754.72;;;28.02;37.20
69460;BME280;57182;55.712;37.612;2022-07-22T10:53:10;99754.69;;;29.89;35.48
69460;BME280;57182;55.712;37.612;2022-07-22T10:55:59;99762.84;;;29.83;34.22
69460;BME280;57182;55.712;37.612;2022-07-22T11:01:06;99764.38;;;29.08;34.51
69460;BME280;57182;55.712;37.612;2022-07-22T11:03:37;99772.78;;;28.87;35.07
69460;BME280;57182;55.712;37.612;2022-07-22T11:08:56;99767.38;;;28.02;37.50
69460;BME280;57182;55.712;37.612;2022-07-22T11:11:52;99758.88;;;28.12;38.49
69460;BME280;57182;55.712;37.612;2022-07-22T11:14:31;99758.88;;;28.31;37.20
69460;BME280;57182;55.712;37.612;2022-07-22T11:17:05;99754.09;;;28.27;37.00
69460;BME280;57182;55.712;37.612;2022-07-22T11:19:36;99762.97;;;27.81;37.55
69460;BME280;57182;55.712;37.612;2022-07-22T11:22:07;99757.72;;;27.54;38.32
69460;BME280;57182;55.712;37.612;2022-07-22T11:24:35;99750.84;;;27.58;38.24
69460;BME280;57182;55.712;37.612;2022-07-22T11:27:04;99774.78;;;27.80;38.02
69460;BME280;57182;55.712;37.612;2022-07-22T11:29:38;99734.75;;;27.97;37.70
69460;BME280;57182;55.712;37.612;2022-07-22T11:32:14;99758.03;;;28.50;36.83
69460;BME280;57182;55.712;37.612;2022-07-22T11:34:45;99761.16;;;28.67;36.84
69460;BME280;57182;55.712;37.612;2022-07-22T11:37:15;99771.31;;;28.91;36.43
69460;BME280;57182;55.712;37.612;2022-07-22T11:39:47;99767.13;;;29.02;35.89
69460;BME280;57182;55.712;37.612;2022-07-22T11:42:18;99762.91;;;29.25;35.82
69460;BME280;57182;55.712;37.612;2022-07-22T11:44:46;99740.88;;;29.60;34.78
69460;BME280;57182;55.712;37.612;2022-07-22T11:47:18;99737.22;;;29.48;34.71
69460;BME280;57182;55.712;37.612;2022-07-22T11:49:48;99762.91;;;29.25;34.83
69460;BME280;57182;55.712;37.612;2022-07-22T11:52:16;99746.16;;;28.97;35.68
69460;BME280;57182;55.712;37.612;2022-07-22T11:54:46;99760.72;;;28.90;36.07
69460;BME280;57182;55.712;37.612;2022-07-22T11:57:18;99752.88;;;28.49;36.26
69460;BME280;57182;55.712;37.612;2022-07-22T11:59:46;99739.38;;;28.23;37.09
69460;BME280;57182;55.712;37.612;2022-07-22T12:02:13;99749.09;;;27.97;37.14
69460;BME280;57182;55.712;37.612;2022-07-22T12:04:53;99739.06;;;27.59;38.05
69460;BME280;57182;55.712;37.612;2022-07-22T12:07:41;99756.97;;;27.32;38.21
69460;BME280;57182;55.712;37.612;2022-07-22T12:10:12;99740.81;;;26.91;39.34
69460;BME280;57182;55.712;37.612;2022-07-22T12:12:43;99738.34;;;26.62;39.17
69460;BME280;57182;55.712;37.612;2022-07-22T12:15:14;99736.97;;;26.45;39.41
69460;BME280;57182;55.712;37.612;2022-07-22T12:18:17;99725.53;;;26.70;40.30
69460;BME280;57182;55.712;37.612;2022-07-22T12:20:48;99738.56;;;27.42;38.21
69460;BME280;57182;55.712;37.612;2022-07-22T12:23:21;99778.63;;;28.71;36.63
69460;BME280;57182;55.712;37.612;2022-07-22T12:28:24;99759.16;;;29.26;35.57
69460;BME280;57182;55.712;37.612;2022-07-22T12:30:55;99735.44;;;29.28;35.38
69460;BME280;57182;55.712;37.612;2022-07-22T12:33:23;99737.53;;;29.13;35.36
69460;BME280;57182;55.712;37.612;2022-07-22T12:36:09;99767.63;;;28.66;35.60
69460;BME280;57182;55.712;37.612;2022-07-22T12:38:37;99747.66;;;28.28;37.18
69460;BME280;57182;55.712;37.612;2022-07-22T12:41:28;99751.34;;;28.00;37.40
69460;BME280;57182;55.712;37.612;2022-07-22T12:43:58;99748.41;;;27.76;37.64
69460;BME280;57182;55.712;37.612;2022-07-22T12:46:26;99738.38;;;27.50;37.98
69460;BME280;57182;55.712;37.612;2022-07-22T12:48:56;99732.59;;;27.47;37.97
69460;BME280;57182;55.712;37.612;2022-07-22T12:51:27;99760.56;;;28.26;37.04
69460;BME280;57182;55.712;37.612;2022-07-22T12:53:56;99737.34;;;29.15;35.73
69460;BME280;57182;55.712;37.612;2022-07-22T12:56:35;99765.00;;;29.10;36.02
69460;BME280;57182;55.712;37.612;2022-07-22T12:59:06;99749.72;;;28.78;36.61
69460;BME280;57182;55.712;37.612;2022-07-22T13:01:35;99748.47;;;28.81;36.35
69460;BME280;57182;55.712;37.612;2022-07-22T13:04:04;99763.03;;;28.73;36.95
69460;BME280;57182;55.712;37.612;2022-07-22T13:06:32;99744.75;;;28.49;36.67
69460;BME280;57182;55.712;37.612;2022-07-22T13:09:00;99740.47;;;29.05;36.44
69460;BME280;57182;55.712;37.612;2022-07-22T13:11:28;99722.25;;;29.83;34.61
69460;BME280;57182;55.712;37.612;2022-07-22T13:14:00;99727.81;;;30.19;34.13
69460;BME280;57182;55.712;37.612;2022-07-22T13:16:29;99757.84;;;30.11;34.29
69460;BME280;57182;55.712;37.612;2022-07-22T13:19:23;99757.59;;;29.44;35.48
69460;BME280;57182;55.712;37.612;2022-07-22T13:21:53;99743.50;;;28.32;36.98
69460;BME280;57182;55.712;37.612;2022-07-22T13:24:24;99749.28;;;27.89;36.99
69460;BME280;57182;55.712;37.612;2022-07-22T13:26:55;99742.69;;;27.38;38.29
69460;BME280;57182;55.712;37.612;2022-07-22T13:29:28;99738.16;;;26.98;38.98
69460;BME280;57182;55.712;37.612;2022-07-22T13:31:56;99770.13;;;27.01;39.23
69460;BME280;57182;55.712;37.612;2022-07-22T13:34:43;99747.28;;;26.97;38.92
69460;BME280;57182;55.712;37.612;2022-07-22T13:37:11;99752.56;;;27.78;38.30
69460;BME280;57182;55.712;37.612;2022-07-22T13:39:39;99732.06;;;28.56;36.81
69460;BME280;57182;55.712;37.612;2022-07-22T13:42:08;99729.84;;;29.99;35.28
69460;BME280;57182;55.712;37.612;2022-07-22T13:44:35;99720.25;;;30.89;34.04
69460;BME280;57182;55.712;37.612;2022-07-22T13:47:12;99716.16;;;30.62;34.28
69460;BME280;57182;55.712;37.612;2022-07-22T13:49:42;99726.66;;;30.58;34.08
69460;BME280;57182;55.712;37.612;2022-07-22T13:52:18;99734.53;;;30.10;34.92
69460;BME280;57182;55.712;37.612;2022-07-22T13:54:46;99741.59;;;29.42;35.56
69460;BME280;57182;55.712;37.612;2022-07-22T13:57:19;99731.84;;;28.57;37.27
69460;BME280;57182;55.712;37.612;2022-07-22T13:59:47;99728.78;;;28.15;38.17
69460;BME280;57182;55.712;37.612;2022-07-22T14:02:16;99750.13;;;27.96;39.00
69460;BME280;57182;55.712;37.612;2022-07-22T14:04:49;99736.94;;;27.41;39.33
69460;BME280;57182;55.712;37.612;2022-07-22T14:07:19;99721.25;;;27.17;39.60
69460;BME280;57182;55.712;37.612;2022-07-22T14:09:49;99750.19;;;27.02;39.57
69460;BME280;57182;55.712;37.612;2022-07-22T14:12:25;99731.34;;;26.67;39.93
69460;BME280;57182;55.712;37.612;2022-07-22T14:14:52;99731.91;;;26.63;39.51
69460;BME280;57182;55.712;37.612;2022-07-22T14:17:22;99753.06;;;26.66;40.29
69460;BME280;57182;55.712;37.612;2022-07-22T14:19:53;99740.69;;;26.44;40.39
69460;BME280;57182;55.712;37.612;2022-07-22T14:22:27;99732.16;;;26.40;40.11
69460;BME280;57182;55.712;37.612;2022-07-22T14:24:57;99755.38;;;26.41;40.02
69460;BME280;57182;55.712;37.612;2022-07-22T14:27:27;99734.81;;;26.34;40.05
69460;BME280;57182;55.712;37.612;2022-07-22T14:29:56;99729.81;;;26.31;40.33
69460;BME280;57182;55.712;37.612;2022-07-22T14:32:31;99727.03;;;26.45;40.38
69460;BME280;57182;55.712;37.612;2022-07-22T14:34:59;99710.50;;;26.48;40.28
69460;BME280;57182;55.712;37.612;2022-07-22T14:37:33;99713.03;;;26.56;40.51
69460;BME280;57182;55.712;37.612;2022-07-22T14:40:10;99751.31;;;26.79;40.43
69460;BME280;57182;55.712;37.612;2022-07-22T14:42:39;99755.81;;;26.72;40.45
69460;BME280;57182;55.712;37.612;2022-07-22T14:45:10;99764.06;;;26.71;40.88
69460;BME280;57182;55.712;37.612;2022-07-22T14:47:38;99742.31;;;26.38;40.83
69460;BME280;57182;55.712;37.612;2022-07-22T14:50:08;99757.34;;;26.26;41.47
69460;BME280;57182;55.712;37.612;2022-07-22T14:52:46;99749.38;;;25.76;41.71
69460;BME280;57182;55.712;37.612;2022-07-22T14:55:13;99771.91;;;25.75;42.17
69460;BME280;57182;55.712;37.612;2022-07-22T14:57:41;99761.03;;;25.61;42.44